sensor_id;sensor_type;location;lat;lon;timestamp;pressure;altitude;pressure_sealevel;temperature;humidity
68855;BME280;69984;-43.570;172.580;2023-12-28T00:02:05;101937.41;;;20.46;64.01
68855;BME280;69984;-43.570;172.580;2023-12-28T00:04:32;101921.50;;;20.38;65.74
68855;BME280;69984;-43.570;172.580;2023-12-28T00:07:02;101932.50;;;20.35;67.39
68855;BME280;69984;-43.570;172.580;2023-12-28T00:09:30;101931.31;;;20.60;64.44
68855;BME280;69984;-43.570;172.580;2023-12-28T00:11:57;101921.31;;;19.94;66.85
68855;BME280;69984;-43.570;172.580;2023-12-28T00:14:24;101914.88;;;20.34;67.81
68855;BME280;69984;-43.570;172.580;2023-12-28T00:16:51;101920.13;;;19.97;65.30
68855;BME280;69984;-43.570;172.580;2023-12-28T00:19:18;101899.69;;;20.57;67.11
68855;BME280;69984;-43.570;172.580;2023-12-28T00:21:47;101902.03;;;20.37;66.79
68855;BME280;69984;-43.570;172.580;2023-12-28T00:24:15;101893.13;;;20.45;67.88
68855;BME280;69984;-43.570;172.580;2023-12-28T00:26:42;101892.16;;;20.01;68.96
68855;BME280;69984;-43.570;172.580;2023-12-28T00:29:09;101879.97;;;20.29;69.71
68855;BME280;69984;-43.570;172.580;2023-12-28T00:31:37;101875.88;;;19.73;68.77
68855;BME280;69984;-43.570;172.580;2023-12-28T00:34:04;101885.41;;;20.13;70.41
68855;BME280;69984;-43.570;172.580;2023-12-28T00:36:31;101878.41;;;20.34;70.54
68855;BME280;69984;-43.570;172.580;2023-12-28T00:38:58;101863.41;;;19.73;70.78
68855;BME280;69984;-43.570;172.580;2023-12-28T00:41:25;101874.72;;;19.98;70.15
68855;BME280;69984;-43.570;172.580;2023-12-28T00:43:52;101872.16;;;20.27;70.17
68855;BME280;69984;-43.570;172.580;2023-12-28T00:46:19;101870.09;;;20.15;72.04
68855;BME280;69984;-43.570;172.580;2023-12-28T00:48:46;101860.19;;;20.23;69.05
68855;BME280;69984;-43.570;172.580;2023-12-28T00:51:14;101865.47;;;19.63;71.32
68855;BME280;69984;-43.570;172.580;2023-12-28T00:53:41;101853.94;;;19.01;73.91
68855;BME280;69984;-43.570;172.580;2023-12-28T00:56:09;101851.38;;;18.85;75.95
68855;BME280;69984;-43.570;172.580;2023-12-28T00:58:39;101844.88;;;18.79;76.24
68855;BME280;69984;-43.570;172.580;2023-12-28T01:01:07;101834.81;;;18.67;77.26
68855;BME280;69984;-43.570;172.580;2023-12-28T01:03:33;101833.88;;;18.99;79.11
68855;BME280;69984;-43.570;172.580;2023-12-28T01:06:00;101824.78;;;19.24;75.31
68855;BME280;69984;-43.570;172.580;2023-12-28T01:08:28;101819.44;;;19.63;74.54
68855;BME280;69984;-43.570;172.580;2023-12-28T01:10:55;101813.16;;;19.56;74.00
68855;BME280;69984;-43.570;172.580;2023-12-28T01:13:22;101813.78;;;18.96;74.33
68855;BME280;69984;-43.570;172.580;2023-12-28T01:15:49;101815.84;;;19.17;74.26
68855;BME280;69984;-43.570;172.580;2023-12-28T01:18:16;101805.06;;;19.49;74.46
68855;BME280;69984;-43.570;172.580;2023-12-28T01:20:43;101799.75;;;19.49;74.86
68855;BME280;69984;-43.570;172.580;2023-12-28T01:23:10;101789.41;;;19.54;73.12
68855;BME280;69984;-43.570;172.580;2023-12-28T01:25:37;101797.34;;;19.31;73.55
68855;BME280;69984;-43.570;172.580;2023-12-28T01:28:04;101800.09;;;18.68;76.13
68855;BME280;69984;-43.570;172.580;2023-12-28T01:30:31;101791.56;;;18.89;76.76
68855;BME280;69984;-43.570;172.580;2023-12-28T01:32:58;101777.63;;;18.87;75.67
68855;BME280;69984;-43.570;172.580;2023-12-28T01:35:25;101777.72;;;19.02;76.72
68855;BME280;69984;-43.570;172.580;2023-12-28T01:37:52;101775.31;;;19.15;75.97
68855;BME280;69984;-43.570;172.580;2023-12-28T01:40:20;101778.94;;;19.53;75.92
68855;BME280;69984;-43.570;172.580;2023-12-28T01:42:47;101777.56;;;19.03;75.02
68855;BME280;69984;-43.570;172.580;2023-12-28T01:45:14;101767.66;;;18.89;75.27
68855;BME280;69984;-43.570;172.580;2023-12-28T01:47:41;101762.78;;;19.01;74.77
68855;BME280;69984;-43.570;172.580;2023-12-28T01:50:08;101755.56;;;19.17;74.49
68855;BME280;69984;-43.570;172.580;2023-12-28T01:52:36;101758.69;;;19.21;74.83
68855;BME280;69984;-43.570;172.580;2023-12-28T01:55:04;101736.19;;;19.01;75.04
68855;BME280;69984;-43.570;172.580;2023-12-28T01:57:32;101738.97;;;19.61;73.10
68855;BME280;69984;-43.570;172.580;2023-12-28T01:59:59;101743.91;;;19.18;72.73
68855;BME280;69984;-43.570;172.580;2023-12-28T02:02:28;101742.41;;;19.47;75.19
68855;BME280;69984;-43.570;172.580;2023-12-28T02:04:55;101733.06;;;19.28;74.32
68855;BME280;69984;-43.570;172.580;2023-12-28T02:07:23;101744.38;;;19.53;74.07
68855;BME280;69984;-43.570;172.580;2023-12-28T02:09:50;101733.28;;;19.49;73.41
68855;BME280;69984;-43.570;172.580;2023-12-28T02:12:18;101732.34;;;19.57;72.27
68855;BME280;69984;-43.570;172.580;2023-12-28T02:14:46;101722.91;;;19.54;72.52
68855;BME280;69984;-43.570;172.580;2023-12-28T02:17:18;101728.34;;;20.13;72.85
68855;BME280;69984;-43.570;172.580;2023-12-28T02:19:56;101718.59;;;19.53;71.84
68855;BME280;69984;-43.570;172.580;2023-12-28T02:22:26;101703.72;;;19.44;71.45
68855;BME280;69984;-43.570;172.580;2023-12-28T02:27:32;101694.31;;;20.23;72.31
68855;BME280;69984;-43.570;172.580;2023-12-28T02:30:00;101700.19;;;20.48;70.79
68855;BME280;69984;-43.570;172.580;2023-12-28T02:35:24;101686.50;;;19.09;74.95
68855;BME280;69984;-43.570;172.580;2023-12-28T02:37:56;101684.69;;;19.55;75.21
68855;BME280;69984;-43.570;172.580;2023-12-28T02:40:25;101682.69;;;19.72;76.03
68855;BME280;69984;-43.570;172.580;2023-12-28T02:42:53;101684.28;;;19.43;75.12
68855;BME280;69984;-43.570;172.580;2023-12-28T02:45:20;101673.97;;;19.63;76.17
68855;BME280;69984;-43.570;172.580;2023-12-28T02:47:47;101674.31;;;19.60;73.18
68855;BME280;69984;-43.570;172.580;2023-12-28T02:50:14;101674.97;;;19.62;74.08
68855;BME280;69984;-43.570;172.580;2023-12-28T02:52:41;101672.38;;;19.31;75.84
68855;BME280;69984;-43.570;172.580;2023-12-28T02:55:08;101657.28;;;19.69;75.63
68855;BME280;69984;-43.570;172.580;2023-12-28T02:57:35;101639.56;;;19.62;75.15
68855;BME280;69984;-43.570;172.580;2023-12-28T03:00:07;101632.91;;;19.80;75.69
68855;BME280;69984;-43.570;172.580;2023-12-28T03:02:37;101650.41;;;19.89;72.93
68855;BME280;69984;-43.570;172.580;2023-12-28T03:05:05;101651.44;;;19.28;76.23
68855;BME280;69984;-43.570;172.580;2023-12-28T03:07:33;101636.34;;;18.83;77.50
68855;BME280;69984;-43.570;172.580;2023-12-28T03:10:01;101635.22;;;19.23;77.62
68855;BME280;69984;-43.570;172.580;2023-12-28T03:12:29;101626.09;;;19.03;76.36
68855;BME280;69984;-43.570;172.580;2023-12-28T03:14:56;101633.34;;;18.86;76.91
68855;BME280;69984;-43.570;172.580;2023-12-28T03:17:23;101629.09;;;18.38;79.52
68855;BME280;69984;-43.570;172.580;2023-12-28T03:19:50;101616.00;;;18.37;81.12
68855;BME280;69984;-43.570;172.580;2023-12-28T03:22:18;101621.75;;;18.79;80.49
68855;BME280;69984;-43.570;172.580;2023-12-28T03:24:46;101616.28;;;18.81;80.57
68855;BME280;69984;-43.570;172.580;2023-12-28T03:27:13;101609.59;;;19.08;78.68
68855;BME280;69984;-43.570;172.580;2023-12-28T03:29:41;101608.75;;;19.30;78.86
68855;BME280;69984;-43.570;172.580;2023-12-28T03:32:11;101601.88;;;19.35;78.08
68855;BME280;69984;-43.570;172.580;2023-12-28T03:34:39;101586.84;;;19.65;77.73
68855;BME280;69984;-43.570;172.580;2023-12-28T03:37:05;101589.28;;;20.11;75.06
68855;BME280;69984;-43.570;172.580;2023-12-28T03:39:33;101578.00;;;20.09;74.55
68855;BME280;69984;-43.570;172.580;2023-12-28T03:42:00;101579.69;;;19.66;75.51
68855;BME280;69984;-43.570;172.580;2023-12-28T03:44:27;101580.06;;;19.40;75.93
68855;BME280;69984;-43.570;172.580;2023-12-28T03:46:54;101566.75;;;19.25;73.27
68855;BME280;69984;-43.570;172.580;2023-12-28T03:49:22;101571.13;;;19.18;73.18
68855;BME280;69984;-43.570;172.580;2023-12-28T03:51:50;101561.38;;;18.73;77.21
68855;BME280;69984;-43.570;172.580;2023-12-28T03:54:21;101562.03;;;18.22;75.58
68855;BME280;69984;-43.570;172.580;2023-12-28T03:56:48;101566.78;;;18.26;77.62
68855;BME280;69984;-43.570;172.580;2023-12-28T03:59:15;101558.34;;;18.23;80.15
68855;BME280;69984;-43.570;172.580;2023-12-28T04:01:42;101537.78;;;18.25;81.88
68855;BME280;69984;-43.570;172.580;2023-12-28T04:04:11;101548.78;;;18.14;81.91
68855;BME280;69984;-43.570;172.580;2023-12-28T04:06:38;101553.88;;;18.23;84.17
68855;BME280;69984;-43.570;172.580;2023-12-28T04:09:05;101547.84;;;18.83;82.32
68855;BME280;69984;-43.570;172.580;2023-12-28T04:11:32;101544.09;;;18.77;80.25
68855;BME280;69984;-43.570;172.580;2023-12-28T04:14:00;101537.13;;;18.99;78.51
68855;BME280;69984;-43.570;172.580;2023-12-28T04:16:27;101526.28;;;18.32;80.29
68855;BME280;69984;-43.570;172.580;2023-12-28T04:18:54;101537.47;;;18.20;82.72
68855;BME280;69984;-43.570;172.580;2023-12-28T04:21:21;101520.38;;;17.91;82.42
68855;BME280;69984;-43.570;172.580;2023-12-28T04:23:48;101528.16;;;17.93;81.42
68855;BME280;69984;-43.570;172.580;2023-12-28T04:26:18;101518.88;;;17.89;82.94
68855;BME280;69984;-43.570;172.580;2023-12-28T04:28:46;101504.63;;;18.21;82.00
68855;BME280;69984;-43.570;172.580;2023-12-28T04:31:13;101512.31;;;18.38;81.48
68855;BME280;69984;-43.570;172.580;2023-12-28T04:33:40;101499.72;;;18.63;82.85
68855;BME280;69984;-43.570;172.580;2023-12-28T04:36:07;101502.78;;;18.75;81.61
68855;BME280;69984;-43.570;172.580;2023-12-28T04:38:34;101490.66;;;18.72;78.61
68855;BME280;69984;-43.570;172.580;2023-12-28T04:41:02;101488.13;;;18.33;81.60
68855;BME280;69984;-43.570;172.580;2023-12-28T04:43:29;101478.06;;;17.98;83.91
68855;BME280;69984;-43.570;172.580;2023-12-28T04:45:56;101477.44;;;18.41;82.73
68855;BME280;69984;-43.570;172.580;2023-12-28T04:48:23;101481.47;;;18.15;84.08
68855;BME280;69984;-43.570;172.580;2023-12-28T04:50:52;101481.22;;;18.24;84.12
68855;BME280;69984;-43.570;172.580;2023-12-28T04:53:19;101470.50;;;17.87;85.01
68855;BME280;69984;-43.570;172.580;2023-12-28T04:55:46;101478.31;;;18.11;84.50
68855;BME280;69984;-43.570;172.580;2023-12-28T04:58:13;101473.63;;;18.21;84.12
68855;BME280;69984;-43.570;172.580;2023-12-28T05:00:40;101461.38;;;17.89;84.88
68855;BME280;69984;-43.570;172.580;2023-12-28T05:03:07;101445.59;;;17.96;86.04
68855;BME280;69984;-43.570;172.580;2023-12-28T05:05:34;101443.50;;;17.83;85.91
68855;BME280;69984;-43.570;172.580;2023-12-28T05:08:01;101455.00;;;17.68;87.05
68855;BME280;69984;-43.570;172.580;2023-12-28T05:10:28;101452.13;;;17.77;86.67
68855;BME280;69984;-43.570;172.580;2023-12-28T05:12:55;101447.38;;;17.73;87.26
68855;BME280;69984;-43.570;172.580;2023-12-28T05:15:22;101442.72;;;17.75;87.71
68855;BME280;69984;-43.570;172.580;2023-12-28T05:17:49;101433.19;;;17.49;87.07
68855;BME280;69984;-43.570;172.580;2023-12-28T05:20:16;101441.63;;;17.61;88.43
68855;BME280;69984;-43.570;172.580;2023-12-28T05:22:44;101430.88;;;17.85;88.29
68855;BME280;69984;-43.570;172.580;2023-12-28T05:25:11;101429.69;;;18.19;86.48
68855;BME280;69984;-43.570;172.580;2023-12-28T05:27:38;101423.25;;;18.13;86.28
68855;BME280;69984;-43.570;172.580;2023-12-28T05:30:06;101412.50;;;17.84;87.69
68855;BME280;69984;-43.570;172.580;2023-12-28T05:32:35;101415.56;;;17.73;88.79
68855;BME280;69984;-43.570;172.580;2023-12-28T05:35:02;101412.94;;;17.65;88.91
68855;BME280;69984;-43.570;172.580;2023-12-28T05:37:29;101404.97;;;17.95;87.72
68855;BME280;69984;-43.570;172.580;2023-12-28T05:39:56;101402.91;;;17.83;87.66
68855;BME280;69984;-43.570;172.580;2023-12-28T05:42:24;101405.03;;;18.10;86.12
68855;BME280;69984;-43.570;172.580;2023-12-28T05:44:50;101401.47;;;17.72;88.51
68855;BME280;69984;-43.570;172.580;2023-12-28T05:47:17;101396.97;;;18.04;87.34
68855;BME280;69984;-43.570;172.580;2023-12-28T05:49:44;101387.47;;;17.86;88.25
68855;BME280;69984;-43.570;172.580;2023-12-28T05:52:11;101391.44;;;17.52;91.86
68855;BME280;69984;-43.570;172.580;2023-12-28T05:54:41;101391.47;;;18.05;90.32
68855;BME280;69984;-43.570;172.580;2023-12-28T05:57:09;101375.44;;;18.21;88.29
68855;BME280;69984;-43.570;172.580;2023-12-28T05:59:40;101390.97;;;18.47;86.17
68855;BME280;69984;-43.570;172.580;2023-12-28T06:02:07;101383.84;;;18.02;88.00
68855;BME280;69984;-43.570;172.580;2023-12-28T06:04:34;101374.69;;;17.90;88.85
68855;BME280;69984;-43.570;172.580;2023-12-28T06:07:03;101360.91;;;18.69;85.28
68855;BME280;69984;-43.570;172.580;2023-12-28T06:09:30;101373.56;;;18.07;87.95
68855;BME280;69984;-43.570;172.580;2023-12-28T06:11:57;101375.19;;;17.85;90.72
68855;BME280;69984;-43.570;172.580;2023-12-28T06:14:24;101371.91;;;18.29;88.28
68855;BME280;69984;-43.570;172.580;2023-12-28T06:16:51;101367.72;;;17.89;89.18
68855;BME280;69984;-43.570;172.580;2023-12-28T06:19:18;101361.75;;;17.64;91.52
68855;BME280;69984;-43.570;172.580;2023-12-28T06:21:45;101367.75;;;17.58;93.08
68855;BME280;69984;-43.570;172.580;2023-12-28T06:24:12;101367.25;;;17.55;93.18
68855;BME280;69984;-43.570;172.580;2023-12-28T06:26:43;101360.50;;;17.75;93.57
68855;BME280;69984;-43.570;172.580;2023-12-28T06:29:10;101350.44;;;17.31;94.33
68855;BME280;69984;-43.570;172.580;2023-12-28T06:31:38;101358.16;;;17.10;97.05
68855;BME280;69984;-43.570;172.580;2023-12-28T06:34:06;101347.50;;;17.26;96.93
68855;BME280;69984;-43.570;172.580;2023-12-28T06:36:33;101359.47;;;17.14;97.65
68855;BME280;69984;-43.570;172.580;2023-12-28T06:39:00;101361.44;;;17.20;97.91
68855;BME280;69984;-43.570;172.580;2023-12-28T06:41:27;101351.03;;;17.49;98.71
68855;BME280;69984;-43.570;172.580;2023-12-28T06:43:55;101346.16;;;17.30;98.27
68855;BME280;69984;-43.570;172.580;2023-12-28T06:46:22;101343.63;;;17.06;100.00
68855;BME280;69984;-43.570;172.580;2023-12-28T06:48:51;101348.63;;;17.93;95.32
68855;BME280;69984;-43.570;172.580;2023-12-28T06:51:19;101339.47;;;18.19;94.20
68855;BME280;69984;-43.570;172.580;2023-12-28T06:53:47;101335.41;;;19.33;87.13
68855;BME280;69984;-43.570;172.580;2023-12-28T06:56:15;101321.59;;;19.23;84.00
68855;BME280;69984;-43.570;172.580;2023-12-28T06:58:44;101319.31;;;18.47;87.85
68855;BME280;69984;-43.570;172.580;2023-12-28T07:01:11;101323.09;;;18.15;92.31
68855;BME280;69984;-43.570;172.580;2023-12-28T07:03:38;101304.25;;;19.27;85.71
68855;BME280;69984;-43.570;172.580;2023-12-28T07:06:05;101310.16;;;18.93;85.66
68855;BME280;69984;-43.570;172.580;2023-12-28T07:08:32;101299.41;;;18.28;88.60
68855;BME280;69984;-43.570;172.580;2023-12-28T07:10:59;101309.34;;;18.64;89.23
68855;BME280;69984;-43.570;172.580;2023-12-28T07:13:26;101308.38;;;19.30;85.50
68855;BME280;69984;-43.570;172.580;2023-12-28T07:15:56;101305.34;;;19.33;83.91
68855;BME280;69984;-43.570;172.580;2023-12-28T07:18:23;101314.25;;;19.25;83.78
68855;BME280;69984;-43.570;172.580;2023-12-28T07:20:50;101298.69;;;19.08;84.86
68855;BME280;69984;-43.570;172.580;2023-12-28T07:23:17;101302.53;;;18.46;89.26
68855;BME280;69984;-43.570;172.580;2023-12-28T07:25:44;101305.44;;;18.89;87.89
68855;BME280;69984;-43.570;172.580;2023-12-28T07:28:11;101301.75;;;18.61;89.38
68855;BME280;69984;-43.570;172.580;2023-12-28T07:30:38;101289.72;;;18.50;90.85
68855;BME280;69984;-43.570;172.580;2023-12-28T07:33:05;101276.91;;;18.02;92.26
68855;BME280;69984;-43.570;172.580;2023-12-28T07:35:32;101279.38;;;17.66;96.13
68855;BME280;69984;-43.570;172.580;2023-12-28T07:37:59;101271.06;;;17.15;100.00
68855;BME280;69984;-43.570;172.580;2023-12-28T07:40:27;101274.19;;;16.80;100.00
68855;BME280;69984;-43.570;172.580;2023-12-28T07:42:54;101270.44;;;16.66;100.00
68855;BME280;69984;-43.570;172.580;2023-12-28T07:45:21;101276.25;;;16.54;100.00
68855;BME280;69984;-43.570;172.580;2023-12-28T07:47:50;101283.19;;;16.55;100.00
68855;BME280;69984;-43.570;172.580;2023-12-28T07:50:18;101284.69;;;16.49;100.00
68855;BME280;69984;-43.570;172.580;2023-12-28T07:52:45;101285.38;;;16.43;100.00
68855;BME280;69984;-43.570;172.580;2023-12-28T07:55:13;101286.03;;;16.45;100.00
68855;BME280;69984;-43.570;172.580;2023-12-28T07:57:40;101285.56;;;16.25;100.00
68855;BME280;69984;-43.570;172.580;2023-12-28T08:00:07;101275.34;;;16.14;100.00
68855;BME280;69984;-43.570;172.580;2023-12-28T08:02:35;101282.09;;;16.09;100.00
68855;BME280;69984;-43.570;172.580;2023-12-28T08:05:03;101272.34;;;16.17;100.00
68855;BME280;69984;-43.570;172.580;2023-12-28T08:07:30;101269.38;;;16.12;100.00
68855;BME280;69984;-43.570;172.580;2023-12-28T08:09:57;101269.72;;;16.09;100.00
68855;BME280;69984;-43.570;172.580;2023-12-28T08:12:24;101267.06;;;16.17;100.00
68855;BME280;69984;-43.570;172.580;2023-12-28T08:14:54;101271.38;;;16.18;100.00
68855;BME280;69984;-43.570;172.580;2023-12-28T08:17:21;101260.63;;;16.04;100.00
68855;BME280;69984;-43.570;172.580;2023-12-28T08:19:49;101281.47;;;16.07;100.00
68855;BME280;69984;-43.570;172.580;2023-12-28T08:22:15;101277.00;;;16.07;100.00
68855;BME280;69984;-43.570;172.580;2023-12-28T08:24:43;101269.56;;;16.03;100.00
68855;BME280;69984;-43.570;172.580;2023-12-28T08:27:10;101268.53;;;16.12;100.00
68855;BME280;69984;-43.570;172.580;2023-12-28T08:29:37;101264.91;;;16.05;100.00
68855;BME280;69984;-43.570;172.580;2023-12-28T08:32:04;101271.38;;;16.10;100.00
68855;BME280;69984;-43.570;172.580;2023-12-28T08:34:31;101258.16;;;16.18;100.00
68855;BME280;69984;-43.570;172.580;2023-12-28T08:36:58;101254.34;;;16.13;100.00
68855;BME280;69984;-43.570;172.580;2023-12-28T08:39:25;101254.53;;;16.03;100.00
68855;BME280;69984;-43.570;172.580;2023-12-28T08:41:52;101244.59;;;16.05;100.00
68855;BME280;69984;-43.570;172.580;2023-12-28T08:44:19;101237.97;;;16.01;100.00
68855;BME280;69984;-43.570;172.580;2023-12-28T08:46:46;101227.41;;;16.01;100.00
68855;BME280;69984;-43.570;172.580;2023-12-28T08:49:13;101231.91;;;16.01;100.00
68855;BME280;69984;-43.570;172.580;2023-12-28T08:51:42;101231.91;;;16.01;100.00
68855;BME280;69984;-43.570;172.580;2023-12-28T08:54:09;101219.50;;;15.93;100.00
68855;BME280;69984;-43.570;172.580;2023-12-28T08:56:36;101219.50;;;15.93;100.00
68855;BME280;69984;-43.570;172.580;2023-12-28T08:59:03;101219.84;;;15.90;100.00
68855;BME280;69984;-43.570;172.580;2023-12-28T09:01:30;101225.28;;;15.88;100.00
68855;BME280;69984;-43.570;172.580;2023-12-28T09:03:57;101224.63;;;15.86;100.00
68855;BME280;69984;-43.570;172.580;2023-12-28T09:06:25;101217.50;;;15.87;100.00
68855;BME280;69984;-43.570;172.580;2023-12-28T09:08:52;101217.16;;;15.98;100.00
68855;BME280;69984;-43.570;172.580;2023-12-28T09:11:20;101216.69;;;15.94;100.00
68855;BME280;69984;-43.570;172.580;2023-12-28T09:13:47;101204.09;;;16.05;100.00
68855;BME280;69984;-43.570;172.580;2023-12-28T09:16:16;101199.16;;;16.02;100.00
68855;BME280;69984;-43.570;172.580;2023-12-28T09:18:43;101205.13;;;15.95;100.00
68855;BME280;69984;-43.570;172.580;2023-12-28T09:21:10;101203.28;;;16.04;100.00
68855;BME280;69984;-43.570;172.580;2023-12-28T09:23:38;101200.66;;;16.04;100.00
68855;BME280;69984;-43.570;172.580;2023-12-28T09:26:06;101202.81;;;16.01;100.00
68855;BME280;69984;-43.570;172.580;2023-12-28T09:28:34;101199.00;;;15.95;100.00
68855;BME280;69984;-43.570;172.580;2023-12-28T09:31:04;101199.81;;;16.04;100.00
68855;BME280;69984;-43.570;172.580;2023-12-28T09:33:31;101193.69;;;16.03;100.00
68855;BME280;69984;-43.570;172.580;2023-12-28T09:35:58;101191.56;;;15.98;100.00
68855;BME280;69984;-43.570;172.580;2023-12-28T09:38:26;101187.09;;;15.99;100.00
68855;BME280;69984;-43.570;172.580;2023-12-28T09:40:58;101174.69;;;16.08;100.00
68855;BME280;69984;-43.570;172.580;2023-12-28T09:43:26;101163.44;;;16.06;100.00
68855;BME280;69984;-43.570;172.580;2023-12-28T09:46:07;101167.25;;;16.11;100.00
68855;BME280;69984;-43.570;172.580;2023-12-28T09:48:35;101148.25;;;16.08;100.00
68855;BME280;69984;-43.570;172.580;2023-12-28T09:51:03;101150.72;;;16.09;100.00
68855;BME280;69984;-43.570;172.580;2023-12-28T09:53:31;101143.25;;;16.13;100.00
68855;BME280;69984;-43.570;172.580;2023-12-28T09:55:59;101151.03;;;16.14;100.00
68855;BME280;69984;-43.570;172.580;2023-12-28T09:58:26;101133.50;;;16.13;100.00
68855;BME280;69984;-43.570;172.580;2023-12-28T10:00:55;101134.50;;;16.12;100.00
68855;BME280;69984;-43.570;172.580;2023-12-28T10:03:22;101132.53;;;16.14;100.00
68855;BME280;69984;-43.570;172.580;2023-12-28T10:05:49;101126.91;;;16.09;100.00
68855;BME280;69984;-43.570;172.580;2023-12-28T10:08:17;101119.13;;;16.16;100.00
68855;BME280;69984;-43.570;172.580;2023-12-28T10:10:44;101108.06;;;16.12;100.00
68855;BME280;69984;-43.570;172.580;2023-12-28T10:13:17;101115.63;;;16.15;100.00
68855;BME280;69984;-43.570;172.580;2023-12-28T10:15:44;101108.59;;;16.08;100.00
68855;BME280;69984;-43.570;172.580;2023-12-28T10:18:11;101110.41;;;16.07;100.00
68855;BME280;69984;-43.570;172.580;2023-12-28T10:20:39;101105.13;;;15.99;100.00
68855;BME280;69984;-43.570;172.580;2023-12-28T10:23:06;101086.75;;;16.06;100.00
68855;BME280;69984;-43.570;172.580;2023-12-28T10:25:33;101092.19;;;16.12;100.00
68855;BME280;69984;-43.570;172.580;2023-12-28T10:28:04;101081.09;;;16.17;100.00
68855;BME280;69984;-43.570;172.580;2023-12-28T10:30:34;101085.28;;;16.11;100.00
68855;BME280;69984;-43.570;172.580;2023-12-28T10:33:01;101090.34;;;16.21;100.00
68855;BME280;69984;-43.570;172.580;2023-12-28T10:35:31;101080.94;;;16.18;100.00
68855;BME280;69984;-43.570;172.580;2023-12-28T10:38:00;101077.16;;;16.13;100.00
68855;BME280;69984;-43.570;172.580;2023-12-28T10:40:29;101073.81;;;16.19;100.00
68855;BME280;69984;-43.570;172.580;2023-12-28T10:43:06;101072.66;;;16.21;100.00
68855;BME280;69984;-43.570;172.580;2023-12-28T10:45:35;101062.25;;;16.20;100.00
68855;BME280;69984;-43.570;172.580;2023-12-28T10:48:05;101042.25;;;16.17;100.00
68855;BME280;69984;-43.570;172.580;2023-12-28T10:50:46;101042.53;;;16.22;100.00
68855;BME280;69984;-43.570;172.580;2023-12-28T10:53:42;101038.63;;;16.18;100.00
68855;BME280;69984;-43.570;172.580;2023-12-28T11:01:41;101027.38;;;16.16;100.00
68855;BME280;69984;-43.570;172.580;2023-12-28T11:06:56;101009.34;;;16.20;100.00
68855;BME280;69984;-43.570;172.580;2023-12-28T11:09:27;101004.56;;;16.15;100.00
68855;BME280;69984;-43.570;172.580;2023-12-28T11:11:57;101003.06;;;16.21;100.00
68855;BME280;69984;-43.570;172.580;2023-12-28T11:14:31;100996.91;;;16.28;100.00
68855;BME280;69984;-43.570;172.580;2023-12-28T11:16:59;100997.38;;;16.32;100.00
68855;BME280;69984;-43.570;172.580;2023-12-28T11:19:30;100999.91;;;16.25;100.00
68855;BME280;69984;-43.570;172.580;2023-12-28T11:21:58;100979.44;;;16.19;100.00
68855;BME280;69984;-43.570;172.580;2023-12-28T11:24:30;100974.97;;;16.20;100.00
68855;BME280;69984;-43.570;172.580;2023-12-28T11:26:57;100970.84;;;16.17;100.00
68855;BME280;69984;-43.570;172.580;2023-12-28T11:29:25;100956.09;;;16.23;100.00
68855;BME280;69984;-43.570;172.580;2023-12-28T11:31:52;100950.06;;;16.14;100.00
68855;BME280;69984;-43.570;172.580;2023-12-28T11:34:25;100944.63;;;16.08;100.00
68855;BME280;69984;-43.570;172.580;2023-12-28T11:36:55;100942.78;;;16.08;100.00
68855;BME280;69984;-43.570;172.580;2023-12-28T11:39:36;100930.75;;;16.06;100.00
68855;BME280;69984;-43.570;172.580;2023-12-28T11:42:06;100917.38;;;16.07;100.00
68855;BME280;69984;-43.570;172.580;2023-12-28T11:44:43;100917.28;;;15.92;100.00
68855;BME280;69984;-43.570;172.580;2023-12-28T11:47:31;100904.72;;;15.94;100.00
68855;BME280;69984;-43.570;172.580;2023-12-28T11:50:07;100896.31;;;15.91;100.00
68855;BME280;69984;-43.570;172.580;2023-12-28T11:52:34;100893.03;;;15.89;100.00
68855;BME280;69984;-43.570;172.580;2023-12-28T11:55:00;100877.44;;;15.94;100.00
68855;BME280;69984;-43.570;172.580;2023-12-28T11:57:27;100888.69;;;15.96;100.00
68855;BME280;69984;-43.570;172.580;2023-12-28T11:59:59;100882.06;;;16.00;100.00
68855;BME280;69984;-43.570;172.580;2023-12-28T12:02:26;100879.78;;;15.97;100.00
68855;BME280;69984;-43.570;172.580;2023-12-28T12:04:54;100869.94;;;16.06;100.00
68855;BME280;69984;-43.570;172.580;2023-12-28T12:07:26;100868.75;;;16.08;100.00
68855;BME280;69984;-43.570;172.580;2023-12-28T12:09:59;100856.38;;;16.09;100.00
68855;BME280;69984;-43.570;172.580;2023-12-28T12:12:26;100857.84;;;16.11;100.00
68855;BME280;69984;-43.570;172.580;2023-12-28T12:14:54;100849.91;;;16.11;100.00
68855;BME280;69984;-43.570;172.580;2023-12-28T12:17:22;100844.16;;;16.08;100.00
68855;BME280;69984;-43.570;172.580;2023-12-28T12:19:49;100842.97;;;16.10;100.00
68855;BME280;69984;-43.570;172.580;2023-12-28T12:22:21;100835.69;;;16.12;100.00
68855;BME280;69984;-43.570;172.580;2023-12-28T12:24:49;100829.56;;;16.12;100.00
68855;BME280;69984;-43.570;172.580;2023-12-28T12:27:17;100825.47;;;16.09;100.00
68855;BME280;69984;-43.570;172.580;2023-12-28T12:29:44;100814.88;;;16.09;100.00
68855;BME280;69984;-43.570;172.580;2023-12-28T12:32:11;100814.88;;;16.09;100.00
68855;BME280;69984;-43.570;172.580;2023-12-28T12:34:40;100813.22;;;16.08;100.00